sensor_id;sensor_type;location;lat;lon;timestamp;temperature;humidity
11320;DHT22;5715;48.234;14.320;2023-07-31T00:00:38;16.40;99.90
11320;DHT22;5715;48.234;14.320;2023-07-31T00:03:26;16.40;99.90
11320;DHT22;5715;48.234;14.320;2023-07-31T00:06:14;16.50;99.90
11320;DHT22;5715;48.234;14.320;2023-07-31T00:09:01;16.60;99.90
11320;DHT22;5715;48.234;14.320;2023-07-31T00:11:49;16.70;99.90
11320;DHT22;5715;48.234;14.320;2023-07-31T00:14:37;16.80;99.90
11320;DHT22;5715;48.234;14.320;2023-07-31T00:17:24;16.80;99.90
11320;DHT22;5715;48.234;14.320;2023-07-31T00:20:12;16.80;99.90
11320;DHT22;5715;48.234;14.320;2023-07-31T00:22:59;16.80;99.90
11320;DHT22;5715;48.234;14.320;2023-07-31T00:25:47;16.80;99.90
11320;DHT22;5715;48.234;14.320;2023-07-31T00:28:35;16.80;99.90
11320;DHT22;5715;48.234;14.320;2023-07-31T00:31:22;16.80;99.90
11320;DHT22;5715;48.234;14.320;2023-07-31T00:34:10;16.80;99.90
11320;DHT22;5715;48.234;14.320;2023-07-31T00:36:57;16.80;99.90
11320;DHT22;5715;48.234;14.320;2023-07-31T00:39:45;16.70;99.90
11320;DHT22;5715;48.234;14.320;2023-07-31T00:42:32;16.60;99.90
11320;DHT22;5715;48.234;14.320;2023-07-31T00:45:20;16.60;99.90
11320;DHT22;5715;48.234;14.320;2023-07-31T00:48:10;16.50;99.90
11320;DHT22;5715;48.234;14.320;2023-07-31T00:50:59;16.50;99.90
11320;DHT22;5715;48.234;14.320;2023-07-31T00:53:48;16.40;99.90
11320;DHT22;5715;48.234;14.320;2023-07-31T00:56:36;16.40;99.90
11320;DHT22;5715;48.234;14.320;2023-07-31T00:59:25;16.40;99.90
11320;DHT22;5715;48.234;14.320;2023-07-31T01:02:12;16.30;99.90
11320;DHT22;5715;48.234;14.320;2023-07-31T01:05:01;16.30;99.90
11320;DHT22;5715;48.234;14.320;2023-07-31T01:11:21;16.20;99.90
11320;DHT22;5715;48.234;14.320;2023-07-31T01:14:14;16.10;99.90
11320;DHT22;5715;48.234;14.320;2023-07-31T01:17:02;16.10;99.90
11320;DHT22;5715;48.234;14.320;2023-07-31T01:19:50;16.10;99.90
11320;DHT22;5715;48.234;14.320;2023-07-31T01:26:24;16.00;99.90
11320;DHT22;5715;48.234;14.320;2023-07-31T01:29:32;16.00;99.90
11320;DHT22;5715;48.234;14.320;2023-07-31T01:32:25;16.00;99.90
11320;DHT22;5715;48.234;14.320;2023-07-31T01:35:16;16.00;99.90
11320;DHT22;5715;48.234;14.320;2023-07-31T01:38:05;16.00;99.90
11320;DHT22;5715;48.234;14.320;2023-07-31T01:40:53;15.90;99.90
11320;DHT22;5715;48.234;14.320;2023-07-31T01:43:41;15.90;99.90
11320;DHT22;5715;48.234;14.320;2023-07-31T01:46:28;15.90;99.90
11320;DHT22;5715;48.234;14.320;2023-07-31T01:49:16;15.90;99.90
11320;DHT22;5715;48.234;14.320;2023-07-31T01:52:03;15.90;99.90
11320;DHT22;5715;48.234;14.320;2023-07-31T01:54:52;15.90;99.90
11320;DHT22;5715;48.234;14.320;2023-07-31T01:57:39;16.00;99.90
11320;DHT22;5715;48.234;14.320;2023-07-31T02:00:27;16.00;99.90
11320;DHT22;5715;48.234;14.320;2023-07-31T02:03:14;16.00;99.90
11320;DHT22;5715;48.234;14.320;2023-07-31T02:06:02;16.00;99.90
11320;DHT22;5715;48.234;14.320;2023-07-31T02:08:50;16.00;99.90
11320;DHT22;5715;48.234;14.320;2023-07-31T02:11:37;15.90;99.90
11320;DHT22;5715;48.234;14.320;2023-07-31T02:14:25;15.90;99.90
11320;DHT22;5715;48.234;14.320;2023-07-31T02:17:12;15.90;99.90
11320;DHT22;5715;48.234;14.320;2023-07-31T02:20:00;15.90;99.90
11320;DHT22;5715;48.234;14.320;2023-07-31T02:22:47;15.90;99.90
11320;DHT22;5715;48.234;14.320;2023-07-31T02:25:35;15.80;99.90
11320;DHT22;5715;48.234;14.320;2023-07-31T02:28:23;15.80;99.90
11320;DHT22;5715;48.234;14.320;2023-07-31T02:31:11;15.80;99.90
11320;DHT22;5715;48.234;14.320;2023-07-31T02:33:58;15.70;99.90
11320;DHT22;5715;48.234;14.320;2023-07-31T02:36:46;15.80;99.90
11320;DHT22;5715;48.234;14.320;2023-07-31T02:39:33;15.80;99.90
11320;DHT22;5715;48.234;14.320;2023-07-31T02:42:23;15.70;99.90
11320;DHT22;5715;48.234;14.320;2023-07-31T02:45:11;15.70;99.90
11320;DHT22;5715;48.234;14.320;2023-07-31T02:47:58;15.60;99.90
11320;DHT22;5715;48.234;14.320;2023-07-31T02:50:47;15.60;99.90
11320;DHT22;5715;48.234;14.320;2023-07-31T02:53:35;15.60;99.90
11320;DHT22;5715;48.234;14.320;2023-07-31T02:56:23;15.50;99.90
11320;DHT22;5715;48.234;14.320;2023-07-31T02:59:10;15.50;99.90
11320;DHT22;5715;48.234;14.320;2023-07-31T03:01:58;15.50;99.90
11320;DHT22;5715;48.234;14.320;2023-07-31T03:04:45;15.50;99.90
11320;DHT22;5715;48.234;14.320;2023-07-31T03:07:33;15.50;99.90
11320;DHT22;5715;48.234;14.320;2023-07-31T03:10:21;15.50;99.90
11320;DHT22;5715;48.234;14.320;2023-07-31T03:13:08;15.50;99.90
11320;DHT22;5715;48.234;14.320;2023-07-31T03:15:56;15.50;99.90
11320;DHT22;5715;48.234;14.320;2023-07-31T03:18:43;15.50;99.90
11320;DHT22;5715;48.234;14.320;2023-07-31T03:21:31;15.40;99.90
11320;DHT22;5715;48.234;14.320;2023-07-31T03:24:18;15.40;99.90
11320;DHT22;5715;48.234;14.320;2023-07-31T03:27:06;15.30;99.90
11320;DHT22;5715;48.234;14.320;2023-07-31T03:29:53;15.20;99.90
11320;DHT22;5715;48.234;14.320;2023-07-31T03:32:43;15.10;99.90
11320;DHT22;5715;48.234;14.320;2023-07-31T03:35:31;15.10;99.90
11320;DHT22;5715;48.234;14.320;2023-07-31T03:38:18;15.00;99.90
11320;DHT22;5715;48.234;14.320;2023-07-31T03:41:07;15.00;99.90
11320;DHT22;5715;48.234;14.320;2023-07-31T03:43:54;14.90;99.90
11320;DHT22;5715;48.234;14.320;2023-07-31T03:46:45;14.90;99.90
11320;DHT22;5715;48.234;14.320;2023-07-31T03:49:32;14.90;99.90
11320;DHT22;5715;48.234;14.320;2023-07-31T03:52:20;14.80;99.90
11320;DHT22;5715;48.234;14.320;2023-07-31T03:55:08;14.80;99.90
11320;DHT22;5715;48.234;14.320;2023-07-31T03:57:55;14.70;99.90
11320;DHT22;5715;48.234;14.320;2023-07-31T04:00:43;14.70;99.90
11320;DHT22;5715;48.234;14.320;2023-07-31T04:03:30;14.70;99.90
11320;DHT22;5715;48.234;14.320;2023-07-31T04:06:18;14.70;99.90
11320;DHT22;5715;48.234;14.320;2023-07-31T04:09:06;14.70;99.90
11320;DHT22;5715;48.234;14.320;2023-07-31T04:11:53;14.80;99.90
11320;DHT22;5715;48.234;14.320;2023-07-31T04:14:41;14.80;99.90
11320;DHT22;5715;48.234;14.320;2023-07-31T04:17:28;14.80;99.90
11320;DHT22;5715;48.234;14.320;2023-07-31T04:20:16;14.80;99.90
11320;DHT22;5715;48.234;14.320;2023-07-31T04:23:03;14.80;99.90
11320;DHT22;5715;48.234;14.320;2023-07-31T04:25:51;14.90;99.90
11320;DHT22;5715;48.234;14.320;2023-07-31T04:28:38;14.90;99.90
11320;DHT22;5715;48.234;14.320;2023-07-31T04:31:26;14.90;99.90
11320;DHT22;5715;48.234;14.320;2023-07-31T04:34:14;15.00;99.90
11320;DHT22;5715;48.234;14.320;2023-07-31T04:37:01;14.90;99.90
11320;DHT22;5715;48.234;14.320;2023-07-31T04:39:49;14.90;99.90
11320;DHT22;5715;48.234;14.320;2023-07-31T04:42:36;14.90;99.90
11320;DHT22;5715;48.234;14.320;2023-07-31T04:45:24;15.00;99.90
11320;DHT22;5715;48.234;14.320;2023-07-31T04:48:11;14.90;99.90
11320;DHT22;5715;48.234;14.320;2023-07-31T04:50:59;14.90;99.90
11320;DHT22;5715;48.234;14.320;2023-07-31T04:53:47;14.90;99.90
11320;DHT22;5715;48.234;14.320;2023-07-31T04:56:34;14.90;99.90
11320;DHT22;5715;48.234;14.320;2023-07-31T04:59:22;14.80;99.90
11320;DHT22;5715;48.234;14.320;2023-07-31T05:02:12;14.90;99.90
11320;DHT22;5715;48.234;14.320;2023-07-31T05:05:00;14.90;99.90
11320;DHT22;5715;48.234;14.320;2023-07-31T05:07:48;14.90;99.90
11320;DHT22;5715;48.234;14.320;2023-07-31T05:10:35;14.90;99.90
11320;DHT22;5715;48.234;14.320;2023-07-31T05:13:23;14.90;99.90
11320;DHT22;5715;48.234;14.320;2023-07-31T05:16:10;14.90;99.90
11320;DHT22;5715;48.234;14.320;2023-07-31T05:18:58;15.00;99.90
11320;DHT22;5715;48.234;14.320;2023-07-31T05:21:45;15.10;99.90
11320;DHT22;5715;48.234;14.320;2023-07-31T05:24:33;15.70;99.90
11320;DHT22;5715;48.234;14.320;2023-07-31T05:27:23;16.20;99.90
11320;DHT22;5715;48.234;14.320;2023-07-31T05:30:11;16.70;99.90
11320;DHT22;5715;48.234;14.320;2023-07-31T05:32:58;17.10;99.90
11320;DHT22;5715;48.234;14.320;2023-07-31T05:35:46;17.80;99.90
11320;DHT22;5715;48.234;14.320;2023-07-31T05:38:34;18.80;99.90
11320;DHT22;5715;48.234;14.320;2023-07-31T05:41:21;19.80;99.90
11320;DHT22;5715;48.234;14.320;2023-07-31T05:44:09;20.50;99.90
11320;DHT22;5715;48.234;14.320;2023-07-31T05:46:56;21.20;99.90
11320;DHT22;5715;48.234;14.320;2023-07-31T05:49:44;21.80;99.90
11320;DHT22;5715;48.234;14.320;2023-07-31T05:52:31;22.10;99.90
11320;DHT22;5715;48.234;14.320;2023-07-31T05:55:19;22.40;99.90
11320;DHT22;5715;48.234;14.320;2023-07-31T05:58:08;22.70;99.90
11320;DHT22;5715;48.234;14.320;2023-07-31T06:00:55;22.80;99.90
11320;DHT22;5715;48.234;14.320;2023-07-31T06:03:43;22.90;99.90
11320;DHT22;5715;48.234;14.320;2023-07-31T06:06:31;22.90;99.90
11320;DHT22;5715;48.234;14.320;2023-07-31T06:09:19;22.90;99.90
11320;DHT22;5715;48.234;14.320;2023-07-31T06:12:07;22.10;99.90
11320;DHT22;5715;48.234;14.320;2023-07-31T06:14:55;21.40;99.90
11320;DHT22;5715;48.234;14.320;2023-07-31T06:17:43;20.70;99.90
11320;DHT22;5715;48.234;14.320;2023-07-31T06:20:31;20.10;99.90
11320;DHT22;5715;48.234;14.320;2023-07-31T06:23:19;19.80;99.90
11320;DHT22;5715;48.234;14.320;2023-07-31T06:26:08;19.50;99.90
11320;DHT22;5715;48.234;14.320;2023-07-31T06:28:55;19.30;99.90
11320;DHT22;5715;48.234;14.320;2023-07-31T06:31:43;19.10;99.90
11320;DHT22;5715;48.234;14.320;2023-07-31T06:34:31;19.10;99.90
11320;DHT22;5715;48.234;14.320;2023-07-31T06:37:18;19.10;99.90
11320;DHT22;5715;48.234;14.320;2023-07-31T06:40:07;19.00;99.90
11320;DHT22;5715;48.234;14.320;2023-07-31T06:42:56;19.00;99.90
11320;DHT22;5715;48.234;14.320;2023-07-31T06:45:43;19.00;99.90
11320;DHT22;5715;48.234;14.320;2023-07-31T06:48:32;19.10;99.90
11320;DHT22;5715;48.234;14.320;2023-07-31T06:51:20;19.20;99.90
11320;DHT22;5715;48.234;14.320;2023-07-31T06:54:08;19.40;99.90
11320;DHT22;5715;48.234;14.320;2023-07-31T06:56:56;19.50;99.90
11320;DHT22;5715;48.234;14.320;2023-07-31T06:59:43;19.60;99.90
11320;DHT22;5715;48.234;14.320;2023-07-31T07:02:31;19.60;99.90
11320;DHT22;5715;48.234;14.320;2023-07-31T07:05:18;19.80;99.90
11320;DHT22;5715;48.234;14.320;2023-07-31T07:08:06;19.90;99.90
11320;DHT22;5715;48.234;14.320;2023-07-31T07:10:54;20.00;99.90
11320;DHT22;5715;48.234;14.320;2023-07-31T07:13:41;20.10;99.90
11320;DHT22;5715;48.234;14.320;2023-07-31T07:16:29;20.30;99.90
11320;DHT22;5715;48.234;14.320;2023-07-31T07:19:16;20.40;99.90
11320;DHT22;5715;48.234;14.320;2023-07-31T07:22:04;20.60;99.90
11320;DHT22;5715;48.234;14.320;2023-07-31T07:24:53;20.90;99.90
11320;DHT22;5715;48.234;14.320;2023-07-31T07:27:40;21.10;99.90
11320;DHT22;5715;48.234;14.320;2023-07-31T07:30:28;21.20;99.90
11320;DHT22;5715;48.234;14.320;2023-07-31T07:33:15;21.20;99.90
11320;DHT22;5715;48.234;14.320;2023-07-31T07:36:03;21.10;99.90
11320;DHT22;5715;48.234;14.320;2023-07-31T07:38:52;21.10;99.90
11320;DHT22;5715;48.234;14.320;2023-07-31T07:41:40;21.20;99.90
11320;DHT22;5715;48.234;14.320;2023-07-31T07:44:28;21.40;99.90
11320;DHT22;5715;48.234;14.320;2023-07-31T07:47:15;21.40;99.90
11320;DHT22;5715;48.234;14.320;2023-07-31T07:50:03;21.30;99.90
11320;DHT22;5715;48.234;14.320;2023-07-31T07:52:55;21.20;99.90
11320;DHT22;5715;48.234;14.320;2023-07-31T07:55:43;21.20;99.90
11320;DHT22;5715;48.234;14.320;2023-07-31T07:58:30;21.20;99.90
11320;DHT22;5715;48.234;14.320;2023-07-31T08:01:18;21.20;99.90
11320;DHT22;5715;48.234;14.320;2023-07-31T08:04:05;21.20;99.90
11320;DHT22;5715;48.234;14.320;2023-07-31T08:06:53;21.10;99.90
11320;DHT22;5715;48.234;14.320;2023-07-31T08:09:41;21.10;99.90
11320;DHT22;5715;48.234;14.320;2023-07-31T08:12:29;21.20;99.90
11320;DHT22;5715;48.234;14.320;2023-07-31T08:15:16;21.40;99.90
11320;DHT22;5715;48.234;14.320;2023-07-31T08:18:03;21.60;99.90
11320;DHT22;5715;48.234;14.320;2023-07-31T08:20:51;21.50;99.90
11320;DHT22;5715;48.234;14.320;2023-07-31T08:23:39;21.60;99.90
11320;DHT22;5715;48.234;14.320;2023-07-31T08:26:27;21.80;99.90
11320;DHT22;5715;48.234;14.320;2023-07-31T08:29:14;21.70;99.90
11320;DHT22;5715;48.234;14.320;2023-07-31T08:32:02;21.80;99.90
11320;DHT22;5715;48.234;14.320;2023-07-31T08:34:50;21.60;99.90
11320;DHT22;5715;48.234;14.320;2023-07-31T08:37:38;21.50;99.90
11320;DHT22;5715;48.234;14.320;2023-07-31T08:40:26;21.40;99.90
11320;DHT22;5715;48.234;14.320;2023-07-31T08:43:15;21.60;99.90
11320;DHT22;5715;48.234;14.320;2023-07-31T08:46:02;21.70;99.90
11320;DHT22;5715;48.234;14.320;2023-07-31T08:48:52;21.70;99.90
11320;DHT22;5715;48.234;14.320;2023-07-31T08:51:41;21.80;99.90
11320;DHT22;5715;48.234;14.320;2023-07-31T08:54:32;21.90;99.90
11320;DHT22;5715;48.234;14.320;2023-07-31T08:57:23;22.00;99.90
11320;DHT22;5715;48.234;14.320;2023-07-31T09:00:13;22.00;99.90
11320;DHT22;5715;48.234;14.320;2023-07-31T09:03:15;22.00;99.90
11320;DHT22;5715;48.234;14.320;2023-07-31T09:06:05;22.10;99.90
11320;DHT22;5715;48.234;14.320;2023-07-31T09:08:54;22.30;99.90
11320;DHT22;5715;48.234;14.320;2023-07-31T09:11:42;22.60;99.90
11320;DHT22;5715;48.234;14.320;2023-07-31T09:14:29;22.90;99.90
11320;DHT22;5715;48.234;14.320;2023-07-31T09:17:35;23.10;99.90
11320;DHT22;5715;48.234;14.320;2023-07-31T09:20:24;22.90;99.90
11320;DHT22;5715;48.234;14.320;2023-07-31T09:23:13;23.00;99.90
11320;DHT22;5715;48.234;14.320;2023-07-31T09:26:02;22.90;99.90
11320;DHT22;5715;48.234;14.320;2023-07-31T09:28:49;22.80;99.90
11320;DHT22;5715;48.234;14.320;2023-07-31T09:31:42;22.60;99.90
11320;DHT22;5715;48.234;14.320;2023-07-31T09:34:37;22.70;99.90
11320;DHT22;5715;48.234;14.320;2023-07-31T09:37:29;22.80;99.90
11320;DHT22;5715;48.234;14.320;2023-07-31T09:40:38;22.90;99.90
11320;DHT22;5715;48.234;14.320;2023-07-31T09:43:33;23.30;99.90
11320;DHT22;5715;48.234;14.320;2023-07-31T09:46:21;23.40;99.90
11320;DHT22;5715;48.234;14.320;2023-07-31T09:49:10;23.60;99.90
11320;DHT22;5715;48.234;14.320;2023-07-31T09:51:58;23.70;99.90
11320;DHT22;5715;48.234;14.320;2023-07-31T09:54:46;23.90;99.90
11320;DHT22;5715;48.234;14.320;2023-07-31T09:57:34;24.20;99.90
11320;DHT22;5715;48.234;14.320;2023-07-31T10:00:27;24.50;99.90
11320;DHT22;5715;48.234;14.320;2023-07-31T10:03:17;25.00;99.90
11320;DHT22;5715;48.234;14.320;2023-07-31T10:06:06;25.30;99.90
11320;DHT22;5715;48.234;14.320;2023-07-31T10:08:56;25.40;99.90
11320;DHT22;5715;48.234;14.320;2023-07-31T10:12:00;24.70;99.90
11320;DHT22;5715;48.234;14.320;2023-07-31T10:14:51;24.40;99.90
11320;DHT22;5715;48.234;14.320;2023-07-31T10:17:41;24.40;99.90
11320;DHT22;5715;48.234;14.320;2023-07-31T10:20:30;24.50;99.90
11320;DHT22;5715;48.234;14.320;2023-07-31T10:23:18;24.50;99.90
11320;DHT22;5715;48.234;14.320;2023-07-31T10:26:07;24.70;99.90
11320;DHT22;5715;48.234;14.320;2023-07-31T10:28:56;24.50;99.90
11320;DHT22;5715;48.234;14.320;2023-07-31T10:31:46;24.50;99.90
11320;DHT22;5715;48.234;14.320;2023-07-31T10:34:36;24.60;99.90
11320;DHT22;5715;48.234;14.320;2023-07-31T10:37:28;24.80;99.90
11320;DHT22;5715;48.234;14.320;2023-07-31T10:40:26;25.20;99.90
11320;DHT22;5715;48.234;14.320;2023-07-31T10:43:24;25.40;99.90
11320;DHT22;5715;48.234;14.320;2023-07-31T10:46:14;25.70;99.90
11320;DHT22;5715;48.234;14.320;2023-07-31T10:49:03;25.50;99.90
11320;DHT22;5715;48.234;14.320;2023-07-31T10:51:50;25.10;99.90
11320;DHT22;5715;48.234;14.320;2023-07-31T10:54:38;25.20;99.90
11320;DHT22;5715;48.234;14.320;2023-07-31T10:57:35;25.30;99.90
11320;DHT22;5715;48.234;14.320;2023-07-31T11:00:27;25.60;99.90
11320;DHT22;5715;48.234;14.320;2023-07-31T11:03:18;25.40;99.90
11320;DHT22;5715;48.234;14.320;2023-07-31T11:06:10;25.00;99.90
11320;DHT22;5715;48.234;14.320;2023-07-31T11:09:00;24.90;99.90
11320;DHT22;5715;48.234;14.320;2023-07-31T11:11:47;25.40;99.90
11320;DHT22;5715;48.234;14.320;2023-07-31T11:14:39;25.40;99.90
11320;DHT22;5715;48.234;14.320;2023-07-31T11:17:27;25.60;99.90
11320;DHT22;5715;48.234;14.320;2023-07-31T11:20:15;25.60;99.90
11320;DHT22;5715;48.234;14.320;2023-07-31T11:23:05;25.30;99.90
11320;DHT22;5715;48.234;14.320;2023-07-31T11:25:59;25.40;99.90
11320;DHT22;5715;48.234;14.320;2023-07-31T11:28:50;24.80;99.90
11320;DHT22;5715;48.234;14.320;2023-07-31T11:31:47;25.00;99.90
11320;DHT22;5715;48.234;14.320;2023-07-31T11:34:51;25.10;99.90
11320;DHT22;5715;48.234;14.320;2023-07-31T11:37:43;25.10;99.90
11320;DHT22;5715;48.234;14.320;2023-07-31T11:40:41;25.10;99.90
11320;DHT22;5715;48.234;14.320;2023-07-31T11:43:31;25.50;99.90
11320;DHT22;5715;48.234;14.320;2023-07-31T11:46:20;25.70;99.90
11320;DHT22;5715;48.234;14.320;2023-07-31T11:49:09;25.90;99.90
11320;DHT22;5715;48.234;14.320;2023-07-31T11:51:57;26.00;99.90
11320;DHT22;5715;48.234;14.320;2023-07-31T11:54:46;25.90;99.90
11320;DHT22;5715;48.234;14.320;2023-07-31T11:57:35;25.30;99.90
11320;DHT22;5715;48.234;14.320;2023-07-31T12:00:26;25.40;99.90
11320;DHT22;5715;48.234;14.320;2023-07-31T12:03:15;25.50;99.90
11320;DHT22;5715;48.234;14.320;2023-07-31T12:06:03;25.20;99.90
11320;DHT22;5715;48.234;14.320;2023-07-31T12:08:51;25.20;99.90
11320;DHT22;5715;48.234;14.320;2023-07-31T12:11:46;25.10;99.90
11320;DHT22;5715;48.234;14.320;2023-07-31T12:14:35;25.20;99.90
11320;DHT22;5715;48.234;14.320;2023-07-31T12:17:29;25.30;99.90
11320;DHT22;5715;48.234;14.320;2023-07-31T12:20:17;25.40;99.90
11320;DHT22;5715;48.234;14.320;2023-07-31T12:23:04;25.40;99.90
11320;DHT22;5715;48.234;14.320;2023-07-31T12:26:01;25.60;99.90
11320;DHT22;5715;48.234;14.320;2023-07-31T12:29:02;25.60;99.90
11320;DHT22;5715;48.234;14.320;2023-07-31T12:31:53;25.70;99.90
11320;DHT22;5715;48.234;14.320;2023-07-31T12:34:44;25.70;99.90
11320;DHT22;5715;48.234;14.320;2023-07-31T12:37:33;25.90;99.90
11320;DHT22;5715;48.234;14.320;2023-07-31T12:40:20;25.70;99.90
11320;DHT22;5715;48.234;14.320;2023-07-31T12:43:16;25.80;99.90
11320;DHT22;5715;48.234;14.320;2023-07-31T12:46:03;25.70;99.90
11320;DHT22;5715;48.234;14.320;2023-07-31T12:48:52;25.80;99.90
11320;DHT22;5715;48.234;14.320;2023-07-31T12:51:39;26.00;99.90
11320;DHT22;5715;48.234;14.320;2023-07-31T12:54:27;25.80;99.90
11320;DHT22;5715;48.234;14.320;2023-07-31T12:57:14;25.70;99.90
11320;DHT22;5715;48.234;14.320;2023-07-31T13:00:03;25.60;99.90
11320;DHT22;5715;48.234;14.320;2023-07-31T13:02:51;25.50;99.90
11320;DHT22;5715;48.234;14.320;2023-07-31T13:05:39;25.40;99.90
11320;DHT22;5715;48.234;14.320;2023-07-31T13:08:32;25.70;99.90
11320;DHT22;5715;48.234;14.320;2023-07-31T13:11:20;25.80;99.90
11320;DHT22;5715;48.234;14.320;2023-07-31T13:14:08;25.80;99.90
11320;DHT22;5715;48.234;14.320;2023-07-31T13:16:55;26.00;99.90
11320;DHT22;5715;48.234;14.320;2023-07-31T13:19:43;26.00;99.90
11320;DHT22;5715;48.234;14.320;2023-07-31T13:22:30;26.10;99.90
11320;DHT22;5715;48.234;14.320;2023-07-31T13:25:18;26.10;99.90
11320;DHT22;5715;48.234;14.320;2023-07-31T13:28:06;26.10;99.90
11320;DHT22;5715;48.234;14.320;2023-07-31T13:30:53;26.30;99.90
11320;DHT22;5715;48.234;14.320;2023-07-31T13:33:41;26.30;99.90
11320;DHT22;5715;48.234;14.320;2023-07-31T13:36:30;26.40;99.90
11320;DHT22;5715;48.234;14.320;2023-07-31T13:39:18;26.30;99.90
11320;DHT22;5715;48.234;14.320;2023-07-31T13:42:07;26.10;99.90
11320;DHT22;5715;48.234;14.320;2023-07-31T13:44:56;26.30;99.90
11320;DHT22;5715;48.234;14.320;2023-07-31T13:47:43;26.30;99.90
11320;DHT22;5715;48.234;14.320;2023-07-31T13:50:31;26.60;99.90
11320;DHT22;5715;48.234;14.320;2023-07-31T13:53:19;26.60;99.90
11320;DHT22;5715;48.234;14.320;2023-07-31T13:56:06;26.70;99.90
11320;DHT22;5715;48.234;14.320;2023-07-31T13:58:54;26.70;99.90
11320;DHT22;5715;48.234;14.320;2023-07-31T14:01:42;26.50;99.90
11320;DHT22;5715;48.234;14.320;2023-07-31T14:04:30;26.60;99.90
11320;DHT22;5715;48.234;14.320;2023-07-31T14:07:18;27.00;99.90
11320;DHT22;5715;48.234;14.320;2023-07-31T14:10:05;27.10;99.90
11320;DHT22;5715;48.234;14.320;2023-07-31T14:12:53;27.40;99.90
11320;DHT22;5715;48.234;14.320;2023-07-31T14:15:42;27.40;99.90
11320;DHT22;5715;48.234;14.320;2023-07-31T14:18:30;27.40;99.90
11320;DHT22;5715;48.234;14.320;2023-07-31T14:21:18;27.30;99.90
11320;DHT22;5715;48.234;14.320;2023-07-31T14:24:06;27.20;99.90
11320;DHT22;5715;48.234;14.320;2023-07-31T14:26:54;27.10;99.90
11320;DHT22;5715;48.234;14.320;2023-07-31T14:29:41;27.00;99.90
11320;DHT22;5715;48.234;14.320;2023-07-31T14:32:29;26.90;99.90
11320;DHT22;5715;48.234;14.320;2023-07-31T14:35:16;27.20;99.90
11320;DHT22;5715;48.234;14.320;2023-07-31T14:38:04;27.30;99.90
11320;DHT22;5715;48.234;14.320;2023-07-31T14:40:51;27.50;99.90
11320;DHT22;5715;48.234;14.320;2023-07-31T14:43:39;27.40;99.90
11320;DHT22;5715;48.234;14.320;2023-07-31T14:46:27;27.30;99.90
11320;DHT22;5715;48.234;14.320;2023-07-31T14:49:14;27.30;99.90
11320;DHT22;5715;48.234;14.320;2023-07-31T14:52:02;27.20;99.90
11320;DHT22;5715;48.234;14.320;2023-07-31T14:54:50;27.20;99.90
11320;DHT22;5715;48.234;14.320;2023-07-31T14:57:37;27.30;99.90
11320;DHT22;5715;48.234;14.320;2023-07-31T15:00:25;27.30;99.90
11320;DHT22;5715;48.234;14.320;2023-07-31T15:03:13;27.50;99.90
11320;DHT22;5715;48.234;14.320;2023-07-31T15:06:01;27.60;99.90
11320;DHT22;5715;48.234;14.320;2023-07-31T15:08:48;27.60;99.90
11320;DHT22;5715;48.234;14.320;2023-07-31T15:11:36;27.40;99.90
11320;DHT22;5715;48.234;14.320;2023-07-31T15:14:24;27.50;99.90
11320;DHT22;5715;48.234;14.320;2023-07-31T15:17:14;27.60;99.90
11320;DHT22;5715;48.234;14.320;2023-07-31T15:20:02;27.80;99.90
11320;DHT22;5715;48.234;14.320;2023-07-31T15:22:50;27.50;99.90
11320;DHT22;5715;48.234;14.320;2023-07-31T15:25:38;27.40;99.90
11320;DHT22;5715;48.234;14.320;2023-07-31T15:28:26;27.30;99.90
11320;DHT22;5715;48.234;14.320;2023-07-31T15:31:13;27.30;99.90
11320;DHT22;5715;48.234;14.320;2023-07-31T15:34:01;27.30;99.90
11320;DHT22;5715;48.234;14.320;2023-07-31T15:36:48;27.20;99.90
11320;DHT22;5715;48.234;14.320;2023-07-31T15:39:36;27.10;99.90
11320;DHT22;5715;48.234;14.320;2023-07-31T15:42:23;27.20;99.90
11320;DHT22;5715;48.234;14.320;2023-07-31T15:45:11;27.10;99.90
11320;DHT22;5715;48.234;14.320;2023-07-31T15:47:59;26.80;99.90
11320;DHT22;5715;48.234;14.320;2023-07-31T15:50:46;26.60;99.90
11320;DHT22;5715;48.234;14.320;2023-07-31T15:53:34;26.50;99.90
11320;DHT22;5715;48.234;14.320;2023-07-31T15:56:22;26.30;99.90
11320;DHT22;5715;48.234;14.320;2023-07-31T15:59:09;26.20;99.90
11320;DHT22;5715;48.234;14.320;2023-07-31T16:01:57;26.00;99.90
11320;DHT22;5715;48.234;14.320;2023-07-31T16:04:45;25.70;99.90
11320;DHT22;5715;48.234;14.320;2023-07-31T16:07:32;25.60;99.90
11320;DHT22;5715;48.234;14.320;2023-07-31T16:10:20;25.40;99.90
11320;DHT22;5715;48.234;14.320;2023-07-31T16:13:08;25.20;99.90
11320;DHT22;5715;48.234;14.320;2023-07-31T16:15:55;25.20;99.90
11320;DHT22;5715;48.234;14.320;2023-07-31T16:18:43;25.20;99.90
11320;DHT22;5715;48.234;14.320;2023-07-31T16:21:31;25.20;99.90
11320;DHT22;5715;48.234;14.320;2023-07-31T16:24:18;25.20;99.90
11320;DHT22;5715;48.234;14.320;2023-07-31T16:27:06;25.20;99.90
11320;DHT22;5715;48.234;14.320;2023-07-31T16:29:54;25.20;99.90
11320;DHT22;5715;48.234;14.320;2023-07-31T16:32:42;25.20;99.90
11320;DHT22;5715;48.234;14.320;2023-07-31T16:35:30;25.20;99.90
11320;DHT22;5715;48.234;14.320;2023-07-31T16:38:17;25.20;99.90
11320;DHT22;5715;48.234;14.320;2023-07-31T16:41:08;25.10;99.90
11320;DHT22;5715;48.234;14.320;2023-07-31T16:43:56;25.20;99.90
11320;DHT22;5715;48.234;14.320;2023-07-31T16:46:43;25.30;99.90
11320;DHT22;5715;48.234;14.320;2023-07-31T16:49:31;25.40;99.90
11320;DHT22;5715;48.234;14.320;2023-07-31T16:52:19;25.40;99.90
11320;DHT22;5715;48.234;14.320;2023-07-31T16:55:06;25.40;99.90
11320;DHT22;5715;48.234;14.320;2023-07-31T16:57:54;25.30;99.90
11320;DHT22;5715;48.234;14.320;2023-07-31T17:00:43;25.30;99.90
11320;DHT22;5715;48.234;14.320;2023-07-31T17:03:30;25.40;99.90
11320;DHT22;5715;48.234;14.320;2023-07-31T17:06:18;25.60;99.90
11320;DHT22;5715;48.234;14.320;2023-07-31T17:09:06;25.70;99.90
11320;DHT22;5715;48.234;14.320;2023-07-31T17:11:55;26.00;99.90
11320;DHT22;5715;48.234;14.320;2023-07-31T17:14:43;26.50;99.90
11320;DHT22;5715;48.234;14.320;2023-07-31T17:17:30;26.80;99.90
11320;DHT22;5715;48.234;14.320;2023-07-31T17:20:18;26.80;99.90
11320;DHT22;5715;48.234;14.320;2023-07-31T17:23:05;26.80;99.90
11320;DHT22;5715;48.234;14.320;2023-07-31T17:25:53;26.80;99.90
11320;DHT22;5715;48.234;14.320;2023-07-31T17:28:41;26.60;99.90
11320;DHT22;5715;48.234;14.320;2023-07-31T17:31:28;26.10;99.90
11320;DHT22;5715;48.234;14.320;2023-07-31T17:34:17;25.80;99.90
11320;DHT22;5715;48.234;14.320;2023-07-31T17:37:05;25.50;99.90
11320;DHT22;5715;48.234;14.320;2023-07-31T17:39:53;25.20;99.90
11320;DHT22;5715;48.234;14.320;2023-07-31T17:42:40;25.00;99.90
11320;DHT22;5715;48.234;14.320;2023-07-31T17:45:28;24.70;99.90
11320;DHT22;5715;48.234;14.320;2023-07-31T17:48:15;24.50;99.90
11320;DHT22;5715;48.234;14.320;2023-07-31T17:51:03;24.40;99.90